Argyle, Wisconsin
Current Conditions -  °F | °C
As of 6:55 AM on Wednesday 22 Oct 2014 (Local Time) from KEFT Reporting Station
Haze Haze  
Wind Chill: 32°   Ceiling: Unl
Heat Index: 36°   Visibility: 3mi
Dew Point: 34°   Wind: 5mph
Humidity: 93%   Direction: 50°NE
Pressure: 30.32"   Gusts: NA
Location:  42.7°N, 89.87°W
Report Text: KEFT 221155Z AUTO 05004KT 3SM BR CLR 02/01 A3032 RMK AO2
Loading
Personal Weather Stations






























Interactive Weather Map New forecast layout! Learn more

10-Day Weather Forecast

Advertisements
Track Severe Weather on mobile